createdAt,value
2023-04-18T07:18:37.175Z,22.10
2023-04-18T07:21:07.699Z,19.13
2023-04-18T07:23:35.270Z,19.42
2023-04-18T07:30:57.842Z,22.20
2023-04-18T07:33:25.179Z,18.13
2023-04-18T07:35:53.142Z,19.45
2023-04-18T07:38:20.665Z,24.70
2023-04-18T07:40:47.982Z,19.83
2023-04-18T07:43:15.229Z,24.10
2023-04-18T07:45:43.453Z,19.30
2023-04-18T07:48:11.372Z,18.52
2023-04-18T07:50:38.765Z,19.08
2023-04-18T07:53:06.283Z,17.42
2023-04-18T07:55:33.520Z,17.80
2023-04-18T07:58:00.763Z,18.85
2023-04-18T08:00:28.819Z,18.65
2023-04-18T08:02:56.598Z,17.30
2023-04-18T08:05:24.109Z,17.98
2023-04-18T08:07:51.410Z,17.20
2023-04-18T08:10:18.649Z,18.60
2023-04-18T08:12:45.945Z,18.55
2023-04-18T08:15:13.289Z,12.05
2023-04-18T08:17:42.686Z,12.70
2023-04-18T08:20:10.000Z,19.00
2023-04-18T08:22:46.827Z,21.73
2023-04-18T08:25:24.474Z,15.73
2023-04-18T08:27:52.332Z,14.65
2023-04-18T08:30:19.734Z,13.90
2023-04-18T08:32:46.988Z,13.93
2023-04-18T08:35:14.361Z,14.18
2023-04-18T08:37:41.638Z,14.68
2023-04-18T08:40:09.237Z,14.45
2023-04-18T08:42:38.242Z,19.58
2023-04-18T08:45:05.497Z,11.77
2023-04-18T08:47:32.894Z,13.85
2023-04-18T08:50:00.212Z,14.13
2023-04-18T08:52:27.439Z,14.13
2023-04-18T08:54:54.666Z,13.80
2023-04-18T08:57:27.017Z,16.10
2023-04-18T08:59:54.461Z,9.85
2023-04-18T09:02:28.591Z,10.40
2023-04-18T09:04:56.127Z,11.60
2023-04-18T09:07:23.334Z,16.17
2023-04-18T09:09:50.895Z,10.93
2023-04-18T09:12:18.408Z,13.40
2023-04-18T09:14:46.785Z,13.90
2023-04-18T09:17:14.450Z,11.73
2023-04-18T09:19:42.362Z,10.38
2023-04-18T09:22:09.985Z,11.15
2023-04-18T09:24:37.207Z,8.55
2023-04-18T09:27:04.451Z,11.98
2023-04-18T09:29:32.313Z,8.02
2023-04-18T09:32:02.537Z,10.25
2023-04-18T09:34:29.868Z,11.30
2023-04-18T09:36:57.103Z,14.20
2023-04-18T09:39:24.351Z,5.95
2023-04-18T09:41:51.476Z,5.72
2023-04-18T09:44:20.398Z,7.50
2023-04-18T09:46:50.014Z,8.55
2023-04-18T09:49:17.879Z,11.00
2023-04-18T09:51:46.246Z,12.98
2023-04-18T09:54:13.789Z,9.68
2023-04-18T09:56:41.114Z,7.18
2023-04-18T09:59:08.827Z,12.25
2023-04-18T10:01:36.174Z,9.57
2023-04-18T10:04:04.392Z,8.32
2023-04-18T10:06:33.476Z,9.45
2023-04-18T10:09:00.820Z,12.93
2023-04-18T10:11:28.101Z,7.20
2023-04-18T10:13:55.363Z,8.95
2023-04-18T10:16:22.616Z,10.02
2023-04-18T10:18:50.334Z,8.88
2023-04-18T10:21:17.595Z,11.73
2023-04-18T10:23:48.799Z,7.28
2023-04-18T10:26:16.219Z,7.65
2023-04-18T10:28:43.440Z,7.05
2023-04-18T10:31:10.775Z,8.40
2023-04-18T10:33:41.975Z,10.38
2023-04-18T10:36:09.627Z,5.78
2023-04-18T10:38:38.848Z,5.88
2023-04-18T10:41:06.102Z,10.40
2023-04-18T10:43:33.317Z,9.38
2023-04-18T10:46:00.658Z,8.98
2023-04-18T10:48:30.150Z,4.20
2023-04-18T10:50:57.373Z,4.55
2023-04-18T10:53:24.634Z,7.25
2023-04-18T10:55:51.901Z,5.43
2023-04-18T10:58:19.115Z,4.82
2023-04-18T11:00:46.430Z,8.18
2023-04-18T11:03:14.018Z,3.85
2023-04-18T11:05:41.489Z,7.72
2023-04-18T11:08:09.236Z,9.50
2023-04-18T11:10:36.568Z,6.07
2023-04-18T11:13:05.515Z,7.82
2023-04-18T11:15:32.825Z,7.35
2023-04-18T11:18:00.150Z,5.97
2023-04-18T11:20:27.509Z,5.55
2023-04-18T11:22:54.731Z,6.88
2023-04-18T11:25:25.180Z,4.57
2023-04-18T11:27:52.566Z,5.03
2023-04-18T11:30:19.834Z,7.47
2023-04-18T11:32:47.640Z,5.13
2023-04-18T11:35:14.837Z,8.18
2023-04-18T11:37:42.107Z,6.32
2023-04-18T11:40:09.424Z,6.45
2023-04-18T11:42:36.721Z,8.00
2023-04-18T11:45:04.015Z,6.60
2023-04-18T11:47:31.798Z,8.63
2023-04-18T11:49:58.998Z,8.05
2023-04-18T11:52:26.283Z,7.05
2023-04-18T11:54:53.504Z,9.43
2023-04-18T11:57:21.104Z,11.13
2023-04-18T11:59:48.271Z,9.27
2023-04-18T12:02:17.056Z,11.77
2023-04-18T12:04:44.755Z,7.00
2023-04-18T12:07:12.042Z,6.47
2023-04-18T12:09:48.370Z,11.13
2023-04-18T12:12:16.605Z,8.52
2023-04-18T12:14:44.857Z,8.40
2023-04-18T12:17:12.217Z,10.80
2023-04-18T12:19:39.451Z,8.35
2023-04-18T12:22:07.656Z,7.03
2023-04-18T12:24:36.224Z,11.20
2023-04-18T12:27:03.494Z,9.32
2023-04-18T12:29:30.735Z,7.88
2023-04-18T12:31:58.172Z,8.18
2023-04-18T12:34:25.504Z,9.13
2023-04-18T12:36:53.920Z,5.35
2023-04-18T12:39:21.157Z,16.42
2023-04-18T12:41:49.790Z,19.27
2023-04-18T12:44:17.743Z,8.90
2023-04-18T12:46:45.071Z,10.98
2023-04-18T12:49:12.312Z,7.90
2023-04-18T12:51:40.606Z,11.25
2023-04-18T12:54:08.016Z,9.50
2023-04-18T12:56:35.576Z,8.85
2023-04-18T13:46:07.186Z,5.95
2023-04-18T13:48:34.799Z,7.20
2023-04-18T13:51:02.459Z,4.90
2023-04-18T13:53:31.072Z,7.50
2023-04-18T13:55:59.212Z,7.25
2023-04-18T13:58:26.694Z,4.93
2023-04-18T14:00:56.469Z,7.68
2023-04-18T14:03:24.526Z,5.45
2023-04-18T14:05:51.922Z,7.05
2023-04-18T14:08:19.292Z,7.22
2023-04-18T14:10:46.539Z,11.00
2023-04-18T14:13:14.006Z,6.60
2023-04-18T14:15:41.282Z,6.80
2023-04-18T14:18:08.672Z,4.22
2023-04-18T14:20:35.957Z,5.80
2023-04-18T14:23:03.301Z,5.35
2023-04-18T14:25:30.531Z,7.00
2023-04-18T14:27:57.911Z,5.50
2023-04-18T14:30:25.282Z,8.20
2023-04-18T16:21:09.036Z,13.85
2023-04-18T16:23:36.390Z,17.00
2023-04-18T16:26:03.645Z,13.83
2023-04-18T16:28:30.946Z,14.15
2023-04-18T16:30:58.216Z,13.70
2023-04-18T16:33:26.170Z,14.45
2023-04-18T16:35:53.586Z,14.43
2023-04-18T16:40:50.827Z,15.27
